sensor_id;sensor_type;location;lat;lon;timestamp;P1;durP1;ratioP1;P2;durP2;ratioP2
13122;SDS011;6627;50.920;12.050;2023-04-24T00:00:20;3.40;;;2.50;;
13122;SDS011;6627;50.920;12.050;2023-04-24T00:02:51;2.40;;;2.20;;
13122;SDS011;6627;50.920;12.050;2023-04-24T00:05:22;3.63;;;2.57;;
13122;SDS011;6627;50.920;12.050;2023-04-24T00:07:50;3.33;;;2.50;;
13122;SDS011;6627;50.920;12.050;2023-04-24T00:10:19;4.27;;;2.80;;
13122;SDS011;6627;50.920;12.050;2023-04-24T00:12:46;4.70;;;2.60;;
13122;SDS011;6627;50.920;12.050;2023-04-24T00:15:14;3.00;;;2.40;;
13122;SDS011;6627;50.920;12.050;2023-04-24T00:17:41;3.17;;;2.60;;
13122;SDS011;6627;50.920;12.050;2023-04-24T00:20:10;3.30;;;2.23;;
13122;SDS011;6627;50.920;12.050;2023-04-24T00:22:37;3.40;;;2.50;;
13122;SDS011;6627;50.920;12.050;2023-04-24T00:25:05;3.00;;;2.70;;
13122;SDS011;6627;50.920;12.050;2023-04-24T00:27:34;3.40;;;2.67;;
13122;SDS011;6627;50.920;12.050;2023-04-24T00:30:02;2.57;;;2.30;;
13122;SDS011;6627;50.920;12.050;2023-04-24T00:32:33;2.83;;;2.23;;
13122;SDS011;6627;50.920;12.050;2023-04-24T00:35:00;3.43;;;2.20;;
13122;SDS011;6627;50.920;12.050;2023-04-24T00:37:29;4.17;;;2.20;;
13122;SDS011;6627;50.920;12.050;2023-04-24T00:39:56;2.00;;;1.90;;
13122;SDS011;6627;50.920;12.050;2023-04-24T00:42:24;4.53;;;2.10;;
13122;SDS011;6627;50.920;12.050;2023-04-24T00:44:51;2.50;;;1.90;;
13122;SDS011;6627;50.920;12.050;2023-04-24T00:47:19;2.63;;;1.80;;
13122;SDS011;6627;50.920;12.050;2023-04-24T00:49:48;2.30;;;2.10;;
13122;SDS011;6627;50.920;12.050;2023-04-24T00:52:16;1.83;;;1.70;;
13122;SDS011;6627;50.920;12.050;2023-04-24T00:54:45;2.17;;;1.80;;
13122;SDS011;6627;50.920;12.050;2023-04-24T00:57:12;2.63;;;1.83;;
13122;SDS011;6627;50.920;12.050;2023-04-24T00:59:41;4.90;;;2.00;;
13122;SDS011;6627;50.920;12.050;2023-04-24T01:02:09;2.00;;;1.90;;
13122;SDS011;6627;50.920;12.050;2023-04-24T01:04:38;4.07;;;2.10;;
13122;SDS011;6627;50.920;12.050;2023-04-24T01:07:06;2.70;;;1.70;;
13122;SDS011;6627;50.920;12.050;2023-04-24T01:09:36;2.47;;;1.87;;
13122;SDS011;6627;50.920;12.050;2023-04-24T01:12:07;1.90;;;1.80;;
13122;SDS011;6627;50.920;12.050;2023-04-24T01:14:35;2.00;;;1.80;;
13122;SDS011;6627;50.920;12.050;2023-04-24T01:17:03;2.83;;;1.90;;
13122;SDS011;6627;50.920;12.050;2023-04-24T01:19:31;1.70;;;1.60;;
13122;SDS011;6627;50.920;12.050;2023-04-24T01:21:58;1.80;;;1.70;;
13122;SDS011;6627;50.920;12.050;2023-04-24T01:24:30;1.97;;;1.60;;
13122;SDS011;6627;50.920;12.050;2023-04-24T01:26:58;1.70;;;1.60;;
13122;SDS011;6627;50.920;12.050;2023-04-24T01:29:26;3.50;;;1.63;;
13122;SDS011;6627;50.920;12.050;2023-04-24T01:31:53;2.00;;;1.70;;
13122;SDS011;6627;50.920;12.050;2023-04-24T01:34:23;2.00;;;1.50;;
13122;SDS011;6627;50.920;12.050;2023-04-24T01:36:51;1.70;;;1.60;;
13122;SDS011;6627;50.920;12.050;2023-04-24T01:39:19;3.53;;;1.80;;
13122;SDS011;6627;50.920;12.050;2023-04-24T01:41:49;1.63;;;1.53;;
13122;SDS011;6627;50.920;12.050;2023-04-24T01:44:17;3.37;;;1.80;;
13122;SDS011;6627;50.920;12.050;2023-04-24T01:46:45;3.10;;;1.80;;
13122;SDS011;6627;50.920;12.050;2023-04-24T01:49:12;2.20;;;1.53;;
13122;SDS011;6627;50.920;12.050;2023-04-24T01:51:39;1.70;;;1.60;;
13122;SDS011;6627;50.920;12.050;2023-04-24T01:54:07;2.13;;;1.47;;
13122;SDS011;6627;50.920;12.050;2023-04-24T01:56:34;1.50;;;1.40;;
13122;SDS011;6627;50.920;12.050;2023-04-24T01:59:04;1.60;;;1.47;;
13122;SDS011;6627;50.920;12.050;2023-04-24T02:01:35;2.30;;;1.27;;
13122;SDS011;6627;50.920;12.050;2023-04-24T02:04:04;1.73;;;1.53;;
13122;SDS011;6627;50.920;12.050;2023-04-24T02:06:33;1.93;;;1.40;;
13122;SDS011;6627;50.920;12.050;2023-04-24T02:09:00;1.83;;;1.40;;
13122;SDS011;6627;50.920;12.050;2023-04-24T02:11:28;1.60;;;1.40;;
13122;SDS011;6627;50.920;12.050;2023-04-24T02:13:55;3.27;;;1.50;;
13122;SDS011;6627;50.920;12.050;2023-04-24T02:16:24;2.57;;;1.50;;
13122;SDS011;6627;50.920;12.050;2023-04-24T02:18:52;1.50;;;1.40;;
13122;SDS011;6627;50.920;12.050;2023-04-24T02:21:19;3.13;;;1.67;;
13122;SDS011;6627;50.920;12.050;2023-04-24T02:23:46;3.10;;;1.53;;
13122;SDS011;6627;50.920;12.050;2023-04-24T02:26:14;2.03;;;1.47;;
13122;SDS011;6627;50.920;12.050;2023-04-24T02:28:41;1.77;;;1.60;;
13122;SDS011;6627;50.920;12.050;2023-04-24T02:31:08;1.60;;;1.43;;
13122;SDS011;6627;50.920;12.050;2023-04-24T02:33:37;1.60;;;1.40;;
13122;SDS011;6627;50.920;12.050;2023-04-24T02:36:05;2.33;;;1.53;;
13122;SDS011;6627;50.920;12.050;2023-04-24T02:38:33;1.77;;;1.40;;
13122;SDS011;6627;50.920;12.050;2023-04-24T02:41:00;2.33;;;1.40;;
13122;SDS011;6627;50.920;12.050;2023-04-24T02:43:31;1.60;;;1.50;;
13122;SDS011;6627;50.920;12.050;2023-04-24T02:45:59;4.07;;;1.50;;
13122;SDS011;6627;50.920;12.050;2023-04-24T02:48:26;1.60;;;1.50;;
13122;SDS011;6627;50.920;12.050;2023-04-24T02:50:55;3.23;;;1.70;;
13122;SDS011;6627;50.920;12.050;2023-04-24T02:53:22;2.00;;;1.70;;
13122;SDS011;6627;50.920;12.050;2023-04-24T02:55:51;3.67;;;1.73;;
13122;SDS011;6627;50.920;12.050;2023-04-24T02:58:18;2.87;;;2.00;;
13122;SDS011;6627;50.920;12.050;2023-04-24T03:00:45;6.53;;;2.23;;
13122;SDS011;6627;50.920;12.050;2023-04-24T03:03:13;1.80;;;1.70;;
13122;SDS011;6627;50.920;12.050;2023-04-24T03:05:40;2.53;;;2.10;;
13122;SDS011;6627;50.920;12.050;2023-04-24T03:08:10;4.73;;;2.20;;
13122;SDS011;6627;50.920;12.050;2023-04-24T03:10:37;3.23;;;1.93;;
13122;SDS011;6627;50.920;12.050;2023-04-24T03:13:04;4.47;;;2.40;;
13122;SDS011;6627;50.920;12.050;2023-04-24T03:15:31;2.20;;;2.00;;
13122;SDS011;6627;50.920;12.050;2023-04-24T03:17:59;2.13;;;1.93;;
13122;SDS011;6627;50.920;12.050;2023-04-24T03:20:28;2.63;;;2.03;;
13122;SDS011;6627;50.920;12.050;2023-04-24T03:22:55;5.00;;;2.00;;
13122;SDS011;6627;50.920;12.050;2023-04-24T03:25:24;4.33;;;2.17;;
13122;SDS011;6627;50.920;12.050;2023-04-24T03:27:51;1.60;;;1.50;;
13122;SDS011;6627;50.920;12.050;2023-04-24T03:30:20;1.70;;;1.60;;
13122;SDS011;6627;50.920;12.050;2023-04-24T03:32:47;3.33;;;1.77;;
13122;SDS011;6627;50.920;12.050;2023-04-24T03:35:14;1.70;;;1.60;;
13122;SDS011;6627;50.920;12.050;2023-04-24T03:37:42;2.20;;;1.60;;
13122;SDS011;6627;50.920;12.050;2023-04-24T03:40:09;2.37;;;1.73;;
13122;SDS011;6627;50.920;12.050;2023-04-24T03:42:39;3.07;;;1.67;;
13122;SDS011;6627;50.920;12.050;2023-04-24T03:45:06;2.07;;;1.90;;
13122;SDS011;6627;50.920;12.050;2023-04-24T03:47:35;2.27;;;2.07;;
13122;SDS011;6627;50.920;12.050;2023-04-24T03:50:02;2.77;;;2.00;;
13122;SDS011;6627;50.920;12.050;2023-04-24T03:52:30;3.17;;;2.03;;
13122;SDS011;6627;50.920;12.050;2023-04-24T03:54:58;3.77;;;2.03;;
13122;SDS011;6627;50.920;12.050;2023-04-24T03:57:25;2.07;;;1.80;;
13122;SDS011;6627;50.920;12.050;2023-04-24T03:59:53;3.67;;;2.00;;
13122;SDS011;6627;50.920;12.050;2023-04-24T04:02:20;2.10;;;1.97;;
13122;SDS011;6627;50.920;12.050;2023-04-24T04:04:48;4.00;;;2.40;;
13122;SDS011;6627;50.920;12.050;2023-04-24T04:07:15;4.17;;;2.17;;
13122;SDS011;6627;50.920;12.050;2023-04-24T04:09:43;3.67;;;2.50;;
13122;SDS011;6627;50.920;12.050;2023-04-24T04:12:10;5.07;;;2.30;;
13122;SDS011;6627;50.920;12.050;2023-04-24T04:14:38;3.33;;;2.50;;
13122;SDS011;6627;50.920;12.050;2023-04-24T04:17:06;2.33;;;1.93;;
13122;SDS011;6627;50.920;12.050;2023-04-24T04:19:33;2.23;;;1.93;;
13122;SDS011;6627;50.920;12.050;2023-04-24T04:22:01;2.97;;;2.40;;
13122;SDS011;6627;50.920;12.050;2023-04-24T04:24:28;6.00;;;2.67;;
13122;SDS011;6627;50.920;12.050;2023-04-24T04:26:56;3.77;;;2.43;;
13122;SDS011;6627;50.920;12.050;2023-04-24T04:29:23;4.40;;;2.77;;
13122;SDS011;6627;50.920;12.050;2023-04-24T04:31:51;6.57;;;2.77;;
13122;SDS011;6627;50.920;12.050;2023-04-24T04:34:19;7.00;;;2.90;;
13122;SDS011;6627;50.920;12.050;2023-04-24T04:36:48;3.53;;;2.43;;
13122;SDS011;6627;50.920;12.050;2023-04-24T04:39:15;2.53;;;2.33;;
13122;SDS011;6627;50.920;12.050;2023-04-24T04:41:44;2.60;;;2.33;;
13122;SDS011;6627;50.920;12.050;2023-04-24T04:44:14;4.03;;;2.20;;
13122;SDS011;6627;50.920;12.050;2023-04-24T04:46:41;2.20;;;2.00;;
13122;SDS011;6627;50.920;12.050;2023-04-24T04:49:09;2.83;;;2.10;;
13122;SDS011;6627;50.920;12.050;2023-04-24T04:51:38;2.07;;;1.80;;
13122;SDS011;6627;50.920;12.050;2023-04-24T04:54:05;3.67;;;2.20;;
13122;SDS011;6627;50.920;12.050;2023-04-24T04:56:33;4.70;;;2.30;;
13122;SDS011;6627;50.920;12.050;2023-04-24T04:59:01;2.60;;;2.00;;
13122;SDS011;6627;50.920;12.050;2023-04-24T05:01:28;2.20;;;2.00;;
13122;SDS011;6627;50.920;12.050;2023-04-24T05:03:55;3.20;;;2.17;;
13122;SDS011;6627;50.920;12.050;2023-04-24T05:06:23;3.47;;;1.90;;
13122;SDS011;6627;50.920;12.050;2023-04-24T05:08:59;2.97;;;1.60;;
13122;SDS011;6627;50.920;12.050;2023-04-24T05:11:26;1.63;;;1.53;;
13122;SDS011;6627;50.920;12.050;2023-04-24T05:13:53;1.93;;;1.67;;
13122;SDS011;6627;50.920;12.050;2023-04-24T05:16:20;2.37;;;2.10;;
13122;SDS011;6627;50.920;12.050;2023-04-24T05:18:47;2.60;;;1.83;;
13122;SDS011;6627;50.920;12.050;2023-04-24T05:21:16;2.57;;;1.70;;
13122;SDS011;6627;50.920;12.050;2023-04-24T05:23:43;4.53;;;1.90;;
13122;SDS011;6627;50.920;12.050;2023-04-24T05:26:12;2.63;;;1.90;;
13122;SDS011;6627;50.920;12.050;2023-04-24T05:28:40;2.27;;;1.60;;
13122;SDS011;6627;50.920;12.050;2023-04-24T05:31:08;2.57;;;1.80;;
13122;SDS011;6627;50.920;12.050;2023-04-24T05:33:35;3.63;;;1.60;;
13122;SDS011;6627;50.920;12.050;2023-04-24T05:36:03;3.43;;;1.63;;
13122;SDS011;6627;50.920;12.050;2023-04-24T05:38:32;6.93;;;1.80;;
13122;SDS011;6627;50.920;12.050;2023-04-24T05:40:59;2.57;;;1.70;;
13122;SDS011;6627;50.920;12.050;2023-04-24T05:43:28;3.03;;;1.80;;
13122;SDS011;6627;50.920;12.050;2023-04-24T05:45:55;3.03;;;1.37;;
13122;SDS011;6627;50.920;12.050;2023-04-24T05:48:22;3.20;;;1.80;;
13122;SDS011;6627;50.920;12.050;2023-04-24T05:50:49;2.00;;;1.47;;
13122;SDS011;6627;50.920;12.050;2023-04-24T05:53:17;2.03;;;1.50;;
13122;SDS011;6627;50.920;12.050;2023-04-24T05:55:45;3.57;;;1.73;;
13122;SDS011;6627;50.920;12.050;2023-04-24T05:58:14;3.10;;;1.70;;
13122;SDS011;6627;50.920;12.050;2023-04-24T06:00:42;4.30;;;1.83;;
13122;SDS011;6627;50.920;12.050;2023-04-24T06:03:11;2.47;;;1.60;;
13122;SDS011;6627;50.920;12.050;2023-04-24T06:05:39;3.37;;;1.50;;
13122;SDS011;6627;50.920;12.050;2023-04-24T06:08:06;4.03;;;1.73;;
13122;SDS011;6627;50.920;12.050;2023-04-24T06:10:33;10.77;;;2.13;;
13122;SDS011;6627;50.920;12.050;2023-04-24T06:13:02;5.20;;;2.10;;
13122;SDS011;6627;50.920;12.050;2023-04-24T06:15:29;3.27;;;1.33;;
13122;SDS011;6627;50.920;12.050;2023-04-24T06:17:58;2.47;;;1.53;;
13122;SDS011;6627;50.920;12.050;2023-04-24T06:20:26;2.20;;;1.30;;
13122;SDS011;6627;50.920;12.050;2023-04-24T06:22:53;3.13;;;1.50;;
13122;SDS011;6627;50.920;12.050;2023-04-24T06:25:20;3.23;;;1.20;;
13122;SDS011;6627;50.920;12.050;2023-04-24T06:27:48;4.10;;;1.53;;
13122;SDS011;6627;50.920;12.050;2023-04-24T06:30:15;3.20;;;1.60;;
13122;SDS011;6627;50.920;12.050;2023-04-24T06:32:43;4.00;;;1.60;;
13122;SDS011;6627;50.920;12.050;2023-04-24T06:35:11;1.63;;;1.33;;
13122;SDS011;6627;50.920;12.050;2023-04-24T06:37:39;1.87;;;1.40;;
13122;SDS011;6627;50.920;12.050;2023-04-24T06:40:08;4.20;;;1.40;;
13122;SDS011;6627;50.920;12.050;2023-04-24T06:42:36;3.87;;;1.57;;
13122;SDS011;6627;50.920;12.050;2023-04-24T06:45:04;2.97;;;1.50;;
13122;SDS011;6627;50.920;12.050;2023-04-24T06:47:32;3.83;;;1.60;;
13122;SDS011;6627;50.920;12.050;2023-04-24T06:49:59;2.90;;;1.40;;
13122;SDS011;6627;50.920;12.050;2023-04-24T06:52:28;4.27;;;1.60;;
13122;SDS011;6627;50.920;12.050;2023-04-24T06:55:00;2.50;;;1.50;;
13122;SDS011;6627;50.920;12.050;2023-04-24T06:57:28;3.33;;;1.70;;
13122;SDS011;6627;50.920;12.050;2023-04-24T06:59:56;2.47;;;1.40;;
13122;SDS011;6627;50.920;12.050;2023-04-24T07:02:23;1.87;;;1.40;;
13122;SDS011;6627;50.920;12.050;2023-04-24T07:04:51;4.07;;;1.53;;
13122;SDS011;6627;50.920;12.050;2023-04-24T07:07:18;1.37;;;1.27;;
13122;SDS011;6627;50.920;12.050;2023-04-24T07:09:47;5.43;;;1.50;;
13122;SDS011;6627;50.920;12.050;2023-04-24T07:12:16;1.63;;;1.10;;
13122;SDS011;6627;50.920;12.050;2023-04-24T07:14:45;1.90;;;1.20;;
13122;SDS011;6627;50.920;12.050;2023-04-24T07:17:12;2.37;;;1.20;;
13122;SDS011;6627;50.920;12.050;2023-04-24T07:19:40;4.00;;;1.17;;
13122;SDS011;6627;50.920;12.050;2023-04-24T07:22:08;2.60;;;1.10;;
13122;SDS011;6627;50.920;12.050;2023-04-24T07:24:36;3.00;;;1.17;;
13122;SDS011;6627;50.920;12.050;2023-04-24T07:27:05;1.83;;;1.13;;
13122;SDS011;6627;50.920;12.050;2023-04-24T07:29:32;5.03;;;1.10;;
13122;SDS011;6627;50.920;12.050;2023-04-24T07:31:59;2.83;;;0.90;;
13122;SDS011;6627;50.920;12.050;2023-04-24T07:34:26;4.00;;;1.27;;
13122;SDS011;6627;50.920;12.050;2023-04-24T07:36:53;1.10;;;0.80;;
13122;SDS011;6627;50.920;12.050;2023-04-24T07:39:21;4.03;;;1.00;;
13122;SDS011;6627;50.920;12.050;2023-04-24T07:41:49;1.90;;;0.90;;
13122;SDS011;6627;50.920;12.050;2023-04-24T07:44:18;1.60;;;1.00;;
13122;SDS011;6627;50.920;12.050;2023-04-24T07:46:45;1.77;;;1.07;;
13122;SDS011;6627;50.920;12.050;2023-04-24T07:49:13;3.67;;;1.10;;
13122;SDS011;6627;50.920;12.050;2023-04-24T07:51:40;2.37;;;1.00;;
13122;SDS011;6627;50.920;12.050;2023-04-24T07:54:07;4.93;;;1.00;;
13122;SDS011;6627;50.920;12.050;2023-04-24T07:56:35;2.50;;;1.00;;
13122;SDS011;6627;50.920;12.050;2023-04-24T07:59:04;2.70;;;1.10;;
13122;SDS011;6627;50.920;12.050;2023-04-24T08:01:32;2.30;;;1.03;;
13122;SDS011;6627;50.920;12.050;2023-04-24T08:03:59;1.93;;;0.90;;
13122;SDS011;6627;50.920;12.050;2023-04-24T08:06:27;1.20;;;0.90;;
13122;SDS011;6627;50.920;12.050;2023-04-24T08:08:55;1.17;;;1.00;;
13122;SDS011;6627;50.920;12.050;2023-04-24T08:11:22;3.30;;;0.90;;
13122;SDS011;6627;50.920;12.050;2023-04-24T08:13:50;1.23;;;0.70;;
13122;SDS011;6627;50.920;12.050;2023-04-24T08:16:17;2.40;;;0.90;;
13122;SDS011;6627;50.920;12.050;2023-04-24T08:18:47;2.13;;;0.97;;
13122;SDS011;6627;50.920;12.050;2023-04-24T08:21:14;4.13;;;1.00;;
13122;SDS011;6627;50.920;12.050;2023-04-24T08:23:44;2.03;;;1.00;;
13122;SDS011;6627;50.920;12.050;2023-04-24T08:26:12;2.33;;;1.13;;
13122;SDS011;6627;50.920;12.050;2023-04-24T08:28:39;1.60;;;1.10;;
13122;SDS011;6627;50.920;12.050;2023-04-24T08:31:08;1.67;;;0.90;;
13122;SDS011;6627;50.920;12.050;2023-04-24T08:33:35;0.80;;;0.80;;
13122;SDS011;6627;50.920;12.050;2023-04-24T08:36:04;1.77;;;0.90;;
13122;SDS011;6627;50.920;12.050;2023-04-24T08:38:32;0.93;;;0.80;;
13122;SDS011;6627;50.920;12.050;2023-04-24T08:41:00;2.83;;;0.90;;
13122;SDS011;6627;50.920;12.050;2023-04-24T08:43:29;0.90;;;0.70;;
13122;SDS011;6627;50.920;12.050;2023-04-24T08:45:59;0.73;;;0.60;;
13122;SDS011;6627;50.920;12.050;2023-04-24T08:48:27;3.87;;;0.77;;
13122;SDS011;6627;50.920;12.050;2023-04-24T08:50:55;1.07;;;0.90;;
13122;SDS011;6627;50.920;12.050;2023-04-24T08:53:26;0.60;;;0.60;;
13122;SDS011;6627;50.920;12.050;2023-04-24T08:55:54;2.07;;;0.83;;
13122;SDS011;6627;50.920;12.050;2023-04-24T08:58:22;1.93;;;0.73;;
13122;SDS011;6627;50.920;12.050;2023-04-24T09:00:53;0.90;;;0.70;;
13122;SDS011;6627;50.920;12.050;2023-04-24T09:03:21;1.07;;;0.80;;
13122;SDS011;6627;50.920;12.050;2023-04-24T09:05:49;0.70;;;0.70;;
13122;SDS011;6627;50.920;12.050;2023-04-24T09:08:21;4.63;;;0.87;;
13122;SDS011;6627;50.920;12.050;2023-04-24T09:10:52;1.93;;;0.70;;
13122;SDS011;6627;50.920;12.050;2023-04-24T09:13:19;1.00;;;0.80;;
13122;SDS011;6627;50.920;12.050;2023-04-24T09:15:47;1.17;;;0.80;;
13122;SDS011;6627;50.920;12.050;2023-04-24T09:18:14;1.33;;;0.80;;
13122;SDS011;6627;50.920;12.050;2023-04-24T09:20:57;1.20;;;0.80;;
13122;SDS011;6627;50.920;12.050;2023-04-24T09:23:28;1.50;;;0.90;;
13122;SDS011;6627;50.920;12.050;2023-04-24T09:25:55;1.13;;;0.90;;
13122;SDS011;6627;50.920;12.050;2023-04-24T09:28:25;1.27;;;0.80;;
13122;SDS011;6627;50.920;12.050;2023-04-24T09:31:05;2.17;;;0.70;;
13122;SDS011;6627;50.920;12.050;2023-04-24T09:33:35;1.87;;;0.90;;
13122;SDS011;6627;50.920;12.050;2023-04-24T09:36:03;1.30;;;0.80;;
13122;SDS011;6627;50.920;12.050;2023-04-24T09:38:33;2.23;;;0.90;;
13122;SDS011;6627;50.920;12.050;2023-04-24T09:41:02;2.00;;;0.80;;
13122;SDS011;6627;50.920;12.050;2023-04-24T09:43:32;2.23;;;0.80;;
13122;SDS011;6627;50.920;12.050;2023-04-24T09:46:04;1.30;;;1.10;;
13122;SDS011;6627;50.920;12.050;2023-04-24T09:48:33;1.73;;;1.03;;
13122;SDS011;6627;50.920;12.050;2023-04-24T09:51:04;0.80;;;0.80;;
13122;SDS011;6627;50.920;12.050;2023-04-24T09:53:37;1.53;;;0.80;;
13122;SDS011;6627;50.920;12.050;2023-04-24T09:56:06;1.67;;;0.83;;
13122;SDS011;6627;50.920;12.050;2023-04-24T09:58:35;0.80;;;0.80;;
13122;SDS011;6627;50.920;12.050;2023-04-24T10:01:03;0.80;;;0.80;;
13122;SDS011;6627;50.920;12.050;2023-04-24T10:03:31;1.43;;;1.00;;
13122;SDS011;6627;50.920;12.050;2023-04-24T10:06:00;1.57;;;1.00;;
13122;SDS011;6627;50.920;12.050;2023-04-24T10:08:33;2.93;;;1.10;;
13122;SDS011;6627;50.920;12.050;2023-04-24T10:11:04;1.03;;;0.83;;
13122;SDS011;6627;50.920;12.050;2023-04-24T10:13:32;1.17;;;0.80;;
13122;SDS011;6627;50.920;12.050;2023-04-24T10:16:02;1.70;;;0.90;;
13122;SDS011;6627;50.920;12.050;2023-04-24T10:18:30;1.07;;;0.73;;
13122;SDS011;6627;50.920;12.050;2023-04-24T10:20:58;1.80;;;1.00;;
13122;SDS011;6627;50.920;12.050;2023-04-24T10:23:28;1.47;;;0.87;;
13122;SDS011;6627;50.920;12.050;2023-04-24T10:25:56;1.43;;;0.90;;
13122;SDS011;6627;50.920;12.050;2023-04-24T10:28:28;1.73;;;1.10;;
13122;SDS011;6627;50.920;12.050;2023-04-24T10:30:57;0.97;;;0.87;;
13122;SDS011;6627;50.920;12.050;2023-04-24T10:33:27;0.90;;;0.90;;
13122;SDS011;6627;50.920;12.050;2023-04-24T10:35:56;1.27;;;0.90;;
13122;SDS011;6627;50.920;12.050;2023-04-24T10:38:25;1.37;;;1.03;;
13122;SDS011;6627;50.920;12.050;2023-04-24T10:40:57;1.70;;;1.00;;
13122;SDS011;6627;50.920;12.050;2023-04-24T10:43:35;1.10;;;1.00;;
13122;SDS011;6627;50.920;12.050;2023-04-24T10:46:03;1.53;;;1.00;;
13122;SDS011;6627;50.920;12.050;2023-04-24T10:48:33;1.03;;;0.93;;
13122;SDS011;6627;50.920;12.050;2023-04-24T10:51:00;1.83;;;1.10;;
13122;SDS011;6627;50.920;12.050;2023-04-24T10:53:28;3.13;;;1.10;;
13122;SDS011;6627;50.920;12.050;2023-04-24T10:56:17;1.67;;;0.90;;
13122;SDS011;6627;50.920;12.050;2023-04-24T10:58:50;1.10;;;1.00;;
13122;SDS011;6627;50.920;12.050;2023-04-24T11:01:23;1.17;;;1.00;;
13122;SDS011;6627;50.920;12.050;2023-04-24T11:03:54;1.10;;;1.00;;
13122;SDS011;6627;50.920;12.050;2023-04-24T11:06:29;1.83;;;1.10;;
13122;SDS011;6627;50.920;12.050;2023-04-24T11:09:01;1.93;;;1.10;;
13122;SDS011;6627;50.920;12.050;2023-04-24T11:11:33;1.97;;;1.00;;
13122;SDS011;6627;50.920;12.050;2023-04-24T11:14:07;2.43;;;1.40;;
13122;SDS011;6627;50.920;12.050;2023-04-24T11:16:36;1.13;;;1.03;;
13122;SDS011;6627;50.920;12.050;2023-04-24T11:19:17;2.07;;;0.90;;
13122;SDS011;6627;50.920;12.050;2023-04-24T11:21:50;1.30;;;1.00;;
13122;SDS011;6627;50.920;12.050;2023-04-24T11:24:32;2.27;;;1.00;;
13122;SDS011;6627;50.920;12.050;2023-04-24T11:27:06;1.40;;;1.00;;
13122;SDS011;6627;50.920;12.050;2023-04-24T11:29:42;1.33;;;0.80;;
13122;SDS011;6627;50.920;12.050;2023-04-24T11:32:17;1.67;;;0.77;;
13122;SDS011;6627;50.920;12.050;2023-04-24T11:34:51;2.57;;;0.97;;
13122;SDS011;6627;50.920;12.050;2023-04-24T11:37:21;4.10;;;0.97;;
13122;SDS011;6627;50.920;12.050;2023-04-24T11:39:51;4.03;;;1.20;;
13122;SDS011;6627;50.920;12.050;2023-04-24T11:42:20;1.70;;;1.00;;
13122;SDS011;6627;50.920;12.050;2023-04-24T11:44:51;2.60;;;1.10;;
13122;SDS011;6627;50.920;12.050;2023-04-24T11:47:27;1.07;;;0.77;;
13122;SDS011;6627;50.920;12.050;2023-04-24T11:49:55;1.13;;;1.03;;
13122;SDS011;6627;50.920;12.050;2023-04-24T11:52:23;6.17;;;1.47;;
13122;SDS011;6627;50.920;12.050;2023-04-24T11:54:50;1.00;;;0.90;;
13122;SDS011;6627;50.920;12.050;2023-04-24T11:57:18;1.30;;;1.13;;
13122;SDS011;6627;50.920;12.050;2023-04-24T11:59:47;0.80;;;0.80;;
13122;SDS011;6627;50.920;12.050;2023-04-24T12:02:23;1.17;;;0.93;;
13122;SDS011;6627;50.920;12.050;2023-04-24T12:04:52;1.83;;;0.90;;
13122;SDS011;6627;50.920;12.050;2023-04-24T12:07:21;1.43;;;1.00;;
13122;SDS011;6627;50.920;12.050;2023-04-24T12:09:55;1.23;;;0.90;;
13122;SDS011;6627;50.920;12.050;2023-04-24T12:12:25;2.30;;;0.87;;
13122;SDS011;6627;50.920;12.050;2023-04-24T12:14:55;1.20;;;0.90;;
13122;SDS011;6627;50.920;12.050;2023-04-24T12:17:25;0.83;;;0.83;;
13122;SDS011;6627;50.920;12.050;2023-04-24T12:19:57;2.67;;;0.93;;
13122;SDS011;6627;50.920;12.050;2023-04-24T12:22:28;1.20;;;0.80;;
13122;SDS011;6627;50.920;12.050;2023-04-24T12:25:10;2.27;;;0.87;;
13122;SDS011;6627;50.920;12.050;2023-04-24T12:27:38;1.00;;;0.83;;
13122;SDS011;6627;50.920;12.050;2023-04-24T12:30:09;1.10;;;1.00;;
13122;SDS011;6627;50.920;12.050;2023-04-24T12:32:44;1.20;;;1.10;;
13122;SDS011;6627;50.920;12.050;2023-04-24T12:35:13;1.10;;;1.00;;
13122;SDS011;6627;50.920;12.050;2023-04-24T12:37:46;1.00;;;1.00;;
13122;SDS011;6627;50.920;12.050;2023-04-24T12:40:14;1.97;;;1.00;;
13122;SDS011;6627;50.920;12.050;2023-04-24T12:42:42;1.00;;;0.90;;
13122;SDS011;6627;50.920;12.050;2023-04-24T12:45:10;1.00;;;0.80;;
13122;SDS011;6627;50.920;12.050;2023-04-24T12:47:39;1.00;;;0.90;;
13122;SDS011;6627;50.920;12.050;2023-04-24T12:50:10;1.90;;;0.90;;
13122;SDS011;6627;50.920;12.050;2023-04-24T12:52:40;3.10;;;1.10;;
13122;SDS011;6627;50.920;12.050;2023-04-24T12:55:08;1.00;;;0.90;;
13122;SDS011;6627;50.920;12.050;2023-04-24T12:57:38;0.83;;;0.80;;
13122;SDS011;6627;50.920;12.050;2023-04-24T13:00:07;2.70;;;0.90;;
13122;SDS011;6627;50.920;12.050;2023-04-24T13:02:35;1.03;;;0.93;;
13122;SDS011;6627;50.920;12.050;2023-04-24T13:05:02;3.00;;;0.90;;
13122;SDS011;6627;50.920;12.050;2023-04-24T13:07:32;1.20;;;1.00;;
13122;SDS011;6627;50.920;12.050;2023-04-24T13:09:59;1.83;;;1.00;;
13122;SDS011;6627;50.920;12.050;2023-04-24T13:12:27;2.20;;;0.90;;
13122;SDS011;6627;50.920;12.050;2023-04-24T13:14:54;1.37;;;0.90;;
13122;SDS011;6627;50.920;12.050;2023-04-24T13:17:21;1.23;;;1.00;;
13122;SDS011;6627;50.920;12.050;2023-04-24T13:19:49;1.60;;;1.03;;
13122;SDS011;6627;50.920;12.050;2023-04-24T13:22:17;1.70;;;1.10;;
13122;SDS011;6627;50.920;12.050;2023-04-24T13:24:46;2.30;;;0.90;;
13122;SDS011;6627;50.920;12.050;2023-04-24T13:27:15;1.10;;;0.93;;
13122;SDS011;6627;50.920;12.050;2023-04-24T13:29:43;1.40;;;1.13;;
13122;SDS011;6627;50.920;12.050;2023-04-24T13:32:11;2.13;;;1.00;;
13122;SDS011;6627;50.920;12.050;2023-04-24T13:34:39;1.63;;;1.10;;
13122;SDS011;6627;50.920;12.050;2023-04-24T13:37:06;2.20;;;0.90;;
13122;SDS011;6627;50.920;12.050;2023-04-24T13:39:34;1.30;;;1.20;;
13122;SDS011;6627;50.920;12.050;2023-04-24T13:42:03;1.27;;;1.00;;
13122;SDS011;6627;50.920;12.050;2023-04-24T13:44:30;0.67;;;0.67;;
13122;SDS011;6627;50.920;12.050;2023-04-24T13:46:59;2.73;;;1.10;;
13122;SDS011;6627;50.920;12.050;2023-04-24T13:49:26;2.03;;;1.00;;
13122;SDS011;6627;50.920;12.050;2023-04-24T13:51:55;1.00;;;0.97;;
13122;SDS011;6627;50.920;12.050;2023-04-24T13:54:23;1.10;;;0.87;;
13122;SDS011;6627;50.920;12.050;2023-04-24T13:56:51;1.27;;;1.07;;
13122;SDS011;6627;50.920;12.050;2023-04-24T13:59:20;1.20;;;1.10;;
13122;SDS011;6627;50.920;12.050;2023-04-24T14:01:47;2.43;;;1.00;;
13122;SDS011;6627;50.920;12.050;2023-04-24T14:04:15;1.13;;;0.90;;
13122;SDS011;6627;50.920;12.050;2023-04-24T14:06:42;1.30;;;0.87;;
13122;SDS011;6627;50.920;12.050;2023-04-24T14:09:10;1.50;;;1.40;;
13122;SDS011;6627;50.920;12.050;2023-04-24T14:11:38;2.93;;;1.13;;
13122;SDS011;6627;50.920;12.050;2023-04-24T14:14:05;1.10;;;1.00;;
13122;SDS011;6627;50.920;12.050;2023-04-24T14:16:35;1.43;;;1.00;;
13122;SDS011;6627;50.920;12.050;2023-04-24T14:19:03;1.47;;;1.17;;
13122;SDS011;6627;50.920;12.050;2023-04-24T14:21:32;1.23;;;1.10;;
13122;SDS011;6627;50.920;12.050;2023-04-24T14:23:59;1.33;;;1.20;;
13122;SDS011;6627;50.920;12.050;2023-04-24T14:26:26;1.90;;;1.20;;
13122;SDS011;6627;50.920;12.050;2023-04-24T14:28:54;1.37;;;1.27;;
13122;SDS011;6627;50.920;12.050;2023-04-24T14:31:22;2.93;;;1.20;;
13122;SDS011;6627;50.920;12.050;2023-04-24T14:33:51;2.73;;;1.30;;
13122;SDS011;6627;50.920;12.050;2023-04-24T14:36:18;1.67;;;1.20;;
13122;SDS011;6627;50.920;12.050;2023-04-24T14:38:46;1.37;;;1.20;;
13122;SDS011;6627;50.920;12.050;2023-04-24T14:41:14;1.30;;;1.20;;
13122;SDS011;6627;50.920;12.050;2023-04-24T14:43:41;1.20;;;1.10;;
13122;SDS011;6627;50.920;12.050;2023-04-24T14:46:08;1.60;;;1.30;;
13122;SDS011;6627;50.920;12.050;2023-04-24T14:48:35;3.70;;;1.50;;
13122;SDS011;6627;50.920;12.050;2023-04-24T14:51:04;2.13;;;1.17;;
13122;SDS011;6627;50.920;12.050;2023-04-24T14:53:31;1.23;;;1.10;;
13122;SDS011;6627;50.920;12.050;2023-04-24T14:55:58;1.23;;;1.13;;